Airfield :







YOU CAN JOIN US ON...

 
LOGIN :

Register | Disclaimer

   EN    FR    IT 

 









Legend :    VFR   Marginal VFR   IFR   Intensive IFR   Very Intensive IFR
Visi :
Ceiling :
>= 8 km
>= 3000ft
5 to 8 km
1000 to 3000 ft
1500m to 5 km
500 to 1000 ft
800 to 1500m
200 to 500 ft
< 800m
< 200 ft
Symbols :   Thunderstorms  Fog  Heavy snow  Heavy precipitations  Wind > 20 kt







- Airport Elevation : 586 ft
- IATA code : YRJ


CYRJ - Roberval

CURRENT METAR :
  • 171800Z 32014KT 290V360 40SM SCT047 SCT220 22/10 A2989 RMK SF3CI1 CI TR SLP124 DENSITY ALT 1600FT

EXPIRED METARs :
  • 171700Z 32011G18KT 40SM FEW045 SCT220 21/11 A2988 RMK CU2CI1 SLP122 DENSITY ALT 1500FT
  • 171600Z 33008G15KT 40SM SCT065 BKN220 20/11 A2987 RMK CU3CI3 SLP117 DENSITY ALT 1400FT

TAF TAF CYRJ
Valid from the 17 at 14:00 until the 18 at 02:00 UTC


171338Z 1714/1802 30012G22KT P6SM SCT030 SCT110
TEMPO 1714/1715 BKN020 BKN110
FM171500 32012G22KT P6SM SCT020
TEMPO 1715/1716 BKN020
BECMG 1720/1722 31008KT RMK NXT FCST BY 172000Z
CZUL FIR / North America



MET'MAP, your aeronautical weather chart ! - Copyright ORBIFLY December 2007 - Disclaimer

ORBIFLY MET'MAP TEAM :

Programming & Development : Alexandra Zaïnal
Concept & Development : Baudouin d'Aumeries
Co-Development & Prog : Marc-Olivier Méhu
Technical & hardware support : Manuel Goepfert

Contact : metmap@orbifly.com




SOURCES & CREDITS :

   NOAA